sensor_id;sensor_type;location;lat;lon;timestamp;P1;durP1;ratioP1;P2;durP2;ratioP2
15905;SDS011;8051;50.820;4.884;2022-07-09T00:00:32;30.67;;;29.10;;
15905;SDS011;8051;50.820;4.884;2022-07-09T00:02:59;35.90;;;33.80;;
15905;SDS011;8051;50.820;4.884;2022-07-09T00:05:26;35.23;;;33.10;;
15905;SDS011;8051;50.820;4.884;2022-07-09T00:07:53;34.83;;;32.73;;
15905;SDS011;8051;50.820;4.884;2022-07-09T00:10:20;32.97;;;30.87;;
15905;SDS011;8051;50.820;4.884;2022-07-09T00:12:47;32.13;;;30.33;;
15905;SDS011;8051;50.820;4.884;2022-07-09T00:15:16;33.03;;;31.33;;
15905;SDS011;8051;50.820;4.884;2022-07-09T00:17:42;31.67;;;29.77;;
15905;SDS011;8051;50.820;4.884;2022-07-09T00:20:10;34.13;;;32.33;;
15905;SDS011;8051;50.820;4.884;2022-07-09T00:22:37;34.63;;;32.83;;
15905;SDS011;8051;50.820;4.884;2022-07-09T00:25:04;31.40;;;29.47;;
15905;SDS011;8051;50.820;4.884;2022-07-09T00:27:31;33.60;;;31.77;;
15905;SDS011;8051;50.820;4.884;2022-07-09T00:29:58;31.30;;;29.53;;
15905;SDS011;8051;50.820;4.884;2022-07-09T00:32:26;32.30;;;30.27;;
15905;SDS011;8051;50.820;4.884;2022-07-09T00:34:53;34.13;;;32.10;;
15905;SDS011;8051;50.820;4.884;2022-07-09T00:37:20;32.57;;;30.87;;
15905;SDS011;8051;50.820;4.884;2022-07-09T00:39:47;32.40;;;30.60;;
15905;SDS011;8051;50.820;4.884;2022-07-09T00:42:14;31.77;;;29.80;;
15905;SDS011;8051;50.820;4.884;2022-07-09T00:44:41;31.37;;;29.57;;
15905;SDS011;8051;50.820;4.884;2022-07-09T00:47:08;31.40;;;29.80;;
15905;SDS011;8051;50.820;4.884;2022-07-09T00:49:37;32.13;;;30.37;;
15905;SDS011;8051;50.820;4.884;2022-07-09T00:52:06;30.90;;;29.23;;
15905;SDS011;8051;50.820;4.884;2022-07-09T00:54:35;30.03;;;28.23;;
15905;SDS011;8051;50.820;4.884;2022-07-09T00:57:05;30.87;;;29.30;;
15905;SDS011;8051;50.820;4.884;2022-07-09T00:59:34;33.30;;;30.80;;
15905;SDS011;8051;50.820;4.884;2022-07-09T01:02:02;29.93;;;28.23;;
15905;SDS011;8051;50.820;4.884;2022-07-09T01:04:29;32.07;;;30.27;;
15905;SDS011;8051;50.820;4.884;2022-07-09T01:06:57;28.17;;;26.57;;
15905;SDS011;8051;50.820;4.884;2022-07-09T01:09:24;31.30;;;29.40;;
15905;SDS011;8051;50.820;4.884;2022-07-09T01:11:51;32.30;;;30.30;;
15905;SDS011;8051;50.820;4.884;2022-07-09T01:14:18;31.67;;;29.87;;
15905;SDS011;8051;50.820;4.884;2022-07-09T01:16:45;33.93;;;32.13;;
15905;SDS011;8051;50.820;4.884;2022-07-09T01:19:12;33.57;;;31.60;;
15905;SDS011;8051;50.820;4.884;2022-07-09T01:21:40;33.87;;;32.03;;
15905;SDS011;8051;50.820;4.884;2022-07-09T01:24:08;34.90;;;32.87;;
15905;SDS011;8051;50.820;4.884;2022-07-09T01:26:34;35.27;;;33.13;;
15905;SDS011;8051;50.820;4.884;2022-07-09T01:29:02;34.47;;;32.37;;
15905;SDS011;8051;50.820;4.884;2022-07-09T01:31:29;33.47;;;31.57;;
15905;SDS011;8051;50.820;4.884;2022-07-09T01:33:56;34.57;;;32.67;;
15905;SDS011;8051;50.820;4.884;2022-07-09T01:36:23;33.57;;;31.40;;
15905;SDS011;8051;50.820;4.884;2022-07-09T01:38:51;34.60;;;32.70;;
15905;SDS011;8051;50.820;4.884;2022-07-09T01:41:18;34.97;;;32.97;;
15905;SDS011;8051;50.820;4.884;2022-07-09T01:43:45;34.27;;;32.27;;
15905;SDS011;8051;50.820;4.884;2022-07-09T01:46:12;33.60;;;31.40;;
15905;SDS011;8051;50.820;4.884;2022-07-09T01:48:39;34.40;;;32.37;;
15905;SDS011;8051;50.820;4.884;2022-07-09T01:51:07;33.13;;;31.33;;
15905;SDS011;8051;50.820;4.884;2022-07-09T01:53:34;32.70;;;30.60;;
15905;SDS011;8051;50.820;4.884;2022-07-09T01:56:05;34.37;;;32.07;;
15905;SDS011;8051;50.820;4.884;2022-07-09T01:58:33;34.50;;;32.43;;
15905;SDS011;8051;50.820;4.884;2022-07-09T02:01:00;35.43;;;33.37;;
15905;SDS011;8051;50.820;4.884;2022-07-09T02:03:27;30.70;;;29.00;;
15905;SDS011;8051;50.820;4.884;2022-07-09T02:05:54;30.43;;;27.83;;
15905;SDS011;8051;50.820;4.884;2022-07-09T02:08:22;37.80;;;35.43;;
15905;SDS011;8051;50.820;4.884;2022-07-09T02:10:49;32.50;;;30.77;;
15905;SDS011;8051;50.820;4.884;2022-07-09T02:13:17;40.63;;;38.10;;
15905;SDS011;8051;50.820;4.884;2022-07-09T02:15:44;33.90;;;32.10;;
15905;SDS011;8051;50.820;4.884;2022-07-09T02:18:11;33.40;;;31.50;;
15905;SDS011;8051;50.820;4.884;2022-07-09T02:20:38;35.00;;;33.10;;
15905;SDS011;8051;50.820;4.884;2022-07-09T02:23:05;34.63;;;32.67;;
15905;SDS011;8051;50.820;4.884;2022-07-09T02:25:33;34.23;;;32.03;;
15905;SDS011;8051;50.820;4.884;2022-07-09T02:28:00;34.57;;;32.47;;
15905;SDS011;8051;50.820;4.884;2022-07-09T02:30:28;33.53;;;31.53;;
15905;SDS011;8051;50.820;4.884;2022-07-09T02:32:55;32.93;;;30.70;;
15905;SDS011;8051;50.820;4.884;2022-07-09T02:35:22;34.13;;;32.20;;
15905;SDS011;8051;50.820;4.884;2022-07-09T02:37:49;35.47;;;32.93;;
15905;SDS011;8051;50.820;4.884;2022-07-09T02:40:15;35.10;;;32.90;;
15905;SDS011;8051;50.820;4.884;2022-07-09T02:42:42;35.53;;;33.13;;
15905;SDS011;8051;50.820;4.884;2022-07-09T02:45:09;38.33;;;36.00;;
15905;SDS011;8051;50.820;4.884;2022-07-09T02:47:38;35.20;;;33.07;;
15905;SDS011;8051;50.820;4.884;2022-07-09T02:50:05;37.47;;;35.07;;
15905;SDS011;8051;50.820;4.884;2022-07-09T02:52:32;37.93;;;35.77;;
15905;SDS011;8051;50.820;4.884;2022-07-09T02:54:59;34.93;;;32.87;;
15905;SDS011;8051;50.820;4.884;2022-07-09T02:57:26;35.73;;;33.53;;
15905;SDS011;8051;50.820;4.884;2022-07-09T02:59:53;34.57;;;32.53;;
15905;SDS011;8051;50.820;4.884;2022-07-09T03:02:20;34.53;;;32.43;;
15905;SDS011;8051;50.820;4.884;2022-07-09T03:04:48;33.37;;;31.37;;
15905;SDS011;8051;50.820;4.884;2022-07-09T03:07:16;34.53;;;32.43;;
15905;SDS011;8051;50.820;4.884;2022-07-09T03:09:43;37.00;;;34.90;;
15905;SDS011;8051;50.820;4.884;2022-07-09T03:12:10;34.93;;;32.83;;
15905;SDS011;8051;50.820;4.884;2022-07-09T03:14:36;36.20;;;34.07;;
15905;SDS011;8051;50.820;4.884;2022-07-09T03:17:03;39.37;;;36.57;;
15905;SDS011;8051;50.820;4.884;2022-07-09T03:19:30;37.00;;;34.60;;
15905;SDS011;8051;50.820;4.884;2022-07-09T03:21:59;38.17;;;35.57;;
15905;SDS011;8051;50.820;4.884;2022-07-09T03:24:26;39.90;;;37.07;;
15905;SDS011;8051;50.820;4.884;2022-07-09T03:26:53;35.93;;;33.53;;
15905;SDS011;8051;50.820;4.884;2022-07-09T03:29:20;38.07;;;35.50;;
15905;SDS011;8051;50.820;4.884;2022-07-09T03:31:46;42.70;;;40.00;;
15905;SDS011;8051;50.820;4.884;2022-07-09T03:34:13;36.23;;;33.90;;
15905;SDS011;8051;50.820;4.884;2022-07-09T03:36:41;35.43;;;33.33;;
15905;SDS011;8051;50.820;4.884;2022-07-09T03:39:09;34.73;;;32.33;;
15905;SDS011;8051;50.820;4.884;2022-07-09T03:41:36;34.87;;;32.60;;
15905;SDS011;8051;50.820;4.884;2022-07-09T03:44:03;34.33;;;32.13;;
15905;SDS011;8051;50.820;4.884;2022-07-09T03:46:30;35.57;;;33.17;;
15905;SDS011;8051;50.820;4.884;2022-07-09T03:48:57;36.00;;;33.30;;
15905;SDS011;8051;50.820;4.884;2022-07-09T03:51:24;34.17;;;31.67;;
15905;SDS011;8051;50.820;4.884;2022-07-09T03:53:51;34.03;;;31.67;;
15905;SDS011;8051;50.820;4.884;2022-07-09T03:56:19;35.33;;;32.83;;
15905;SDS011;8051;50.820;4.884;2022-07-09T03:58:46;35.97;;;33.57;;
15905;SDS011;8051;50.820;4.884;2022-07-09T04:01:13;37.07;;;34.60;;
15905;SDS011;8051;50.820;4.884;2022-07-09T04:03:41;36.07;;;33.03;;
15905;SDS011;8051;50.820;4.884;2022-07-09T04:06:08;33.67;;;31.47;;
15905;SDS011;8051;50.820;4.884;2022-07-09T04:08:35;33.57;;;31.17;;
15905;SDS011;8051;50.820;4.884;2022-07-09T04:11:01;31.47;;;28.97;;
15905;SDS011;8051;50.820;4.884;2022-07-09T04:13:30;32.77;;;30.67;;
15905;SDS011;8051;50.820;4.884;2022-07-09T04:15:57;29.13;;;27.23;;
15905;SDS011;8051;50.820;4.884;2022-07-09T04:18:23;28.67;;;26.97;;
15905;SDS011;8051;50.820;4.884;2022-07-09T04:20:50;30.00;;;28.10;;
15905;SDS011;8051;50.820;4.884;2022-07-09T04:23:17;36.50;;;34.20;;
15905;SDS011;8051;50.820;4.884;2022-07-09T04:25:44;36.57;;;34.40;;
15905;SDS011;8051;50.820;4.884;2022-07-09T04:28:13;33.50;;;31.40;;
15905;SDS011;8051;50.820;4.884;2022-07-09T04:30:41;35.93;;;33.53;;
15905;SDS011;8051;50.820;4.884;2022-07-09T04:33:08;38.80;;;36.40;;
15905;SDS011;8051;50.820;4.884;2022-07-09T04:35:35;45.53;;;42.93;;
15905;SDS011;8051;50.820;4.884;2022-07-09T04:38:02;41.27;;;38.60;;
15905;SDS011;8051;50.820;4.884;2022-07-09T04:40:29;43.77;;;41.60;;
15905;SDS011;8051;50.820;4.884;2022-07-09T04:42:56;54.90;;;52.03;;
15905;SDS011;8051;50.820;4.884;2022-07-09T04:45:23;50.03;;;47.10;;
15905;SDS011;8051;50.820;4.884;2022-07-09T04:47:51;44.30;;;41.93;;
15905;SDS011;8051;50.820;4.884;2022-07-09T04:50:18;44.83;;;42.20;;
15905;SDS011;8051;50.820;4.884;2022-07-09T04:52:45;44.10;;;41.60;;
15905;SDS011;8051;50.820;4.884;2022-07-09T04:55:12;44.03;;;41.33;;
15905;SDS011;8051;50.820;4.884;2022-07-09T04:57:40;41.67;;;38.97;;
15905;SDS011;8051;50.820;4.884;2022-07-09T05:00:07;40.37;;;37.50;;
15905;SDS011;8051;50.820;4.884;2022-07-09T05:02:35;41.90;;;38.73;;
15905;SDS011;8051;50.820;4.884;2022-07-09T05:05:04;40.13;;;37.63;;
15905;SDS011;8051;50.820;4.884;2022-07-09T05:07:32;45.00;;;41.27;;
15905;SDS011;8051;50.820;4.884;2022-07-09T05:09:59;39.77;;;36.97;;
15905;SDS011;8051;50.820;4.884;2022-07-09T05:12:26;43.43;;;40.63;;
15905;SDS011;8051;50.820;4.884;2022-07-09T05:14:53;40.63;;;37.80;;
15905;SDS011;8051;50.820;4.884;2022-07-09T05:17:21;37.87;;;35.17;;
15905;SDS011;8051;50.820;4.884;2022-07-09T05:19:48;38.27;;;35.67;;
15905;SDS011;8051;50.820;4.884;2022-07-09T05:22:16;42.53;;;39.30;;
15905;SDS011;8051;50.820;4.884;2022-07-09T05:24:43;42.23;;;39.40;;
15905;SDS011;8051;50.820;4.884;2022-07-09T05:27:10;43.97;;;40.83;;
15905;SDS011;8051;50.820;4.884;2022-07-09T05:29:36;45.50;;;41.87;;
15905;SDS011;8051;50.820;4.884;2022-07-09T05:32:04;44.17;;;41.40;;
15905;SDS011;8051;50.820;4.884;2022-07-09T05:34:31;42.23;;;39.20;;
15905;SDS011;8051;50.820;4.884;2022-07-09T05:36:58;43.33;;;39.67;;
15905;SDS011;8051;50.820;4.884;2022-07-09T05:39:26;45.67;;;42.43;;
15905;SDS011;8051;50.820;4.884;2022-07-09T05:41:53;67.93;;;64.20;;
15905;SDS011;8051;50.820;4.884;2022-07-09T05:44:20;79.30;;;74.60;;
15905;SDS011;8051;50.820;4.884;2022-07-09T05:46:47;66.77;;;62.83;;
15905;SDS011;8051;50.820;4.884;2022-07-09T05:49:14;67.63;;;63.50;;
15905;SDS011;8051;50.820;4.884;2022-07-09T05:51:41;51.80;;;48.23;;
15905;SDS011;8051;50.820;4.884;2022-07-09T05:54:08;64.67;;;61.07;;
15905;SDS011;8051;50.820;4.884;2022-07-09T05:56:36;78.87;;;74.47;;
15905;SDS011;8051;50.820;4.884;2022-07-09T05:59:04;73.17;;;69.43;;
15905;SDS011;8051;50.820;4.884;2022-07-09T06:01:31;85.13;;;80.93;;
15905;SDS011;8051;50.820;4.884;2022-07-09T06:03:58;82.63;;;77.93;;
15905;SDS011;8051;50.820;4.884;2022-07-09T06:06:25;92.23;;;87.47;;
15905;SDS011;8051;50.820;4.884;2022-07-09T06:08:51;81.50;;;76.80;;
15905;SDS011;8051;50.820;4.884;2022-07-09T06:11:18;102.27;;;97.03;;
15905;SDS011;8051;50.820;4.884;2022-07-09T06:13:46;86.03;;;81.43;;
15905;SDS011;8051;50.820;4.884;2022-07-09T06:16:13;101.77;;;96.43;;
15905;SDS011;8051;50.820;4.884;2022-07-09T06:18:40;105.80;;;100.20;;
15905;SDS011;8051;50.820;4.884;2022-07-09T06:21:07;79.43;;;74.77;;
15905;SDS011;8051;50.820;4.884;2022-07-09T06:23:34;99.10;;;93.90;;
15905;SDS011;8051;50.820;4.884;2022-07-09T06:26:01;117.27;;;111.40;;
15905;SDS011;8051;50.820;4.884;2022-07-09T06:28:28;102.13;;;97.27;;
15905;SDS011;8051;50.820;4.884;2022-07-09T06:30:56;62.83;;;59.30;;
15905;SDS011;8051;50.820;4.884;2022-07-09T06:33:23;93.53;;;88.83;;
15905;SDS011;8051;50.820;4.884;2022-07-09T06:35:50;96.80;;;91.87;;
15905;SDS011;8051;50.820;4.884;2022-07-09T06:38:17;103.03;;;97.83;;
15905;SDS011;8051;50.820;4.884;2022-07-09T06:40:44;81.03;;;76.67;;
15905;SDS011;8051;50.820;4.884;2022-07-09T06:43:10;89.47;;;84.97;;
15905;SDS011;8051;50.820;4.884;2022-07-09T06:45:37;83.83;;;79.53;;
15905;SDS011;8051;50.820;4.884;2022-07-09T06:48:06;72.20;;;67.80;;
15905;SDS011;8051;50.820;4.884;2022-07-09T06:50:32;71.07;;;67.33;;
15905;SDS011;8051;50.820;4.884;2022-07-09T06:52:59;70.10;;;66.53;;
15905;SDS011;8051;50.820;4.884;2022-07-09T06:55:26;64.67;;;61.23;;
15905;SDS011;8051;50.820;4.884;2022-07-09T06:57:53;57.70;;;54.33;;
15905;SDS011;8051;50.820;4.884;2022-07-09T07:00:20;59.93;;;56.20;;
15905;SDS011;8051;50.820;4.884;2022-07-09T07:02:48;57.63;;;54.63;;
15905;SDS011;8051;50.820;4.884;2022-07-09T07:05:17;53.63;;;50.97;;
15905;SDS011;8051;50.820;4.884;2022-07-09T07:07:43;52.83;;;49.87;;
15905;SDS011;8051;50.820;4.884;2022-07-09T07:10:10;48.90;;;46.40;;
15905;SDS011;8051;50.820;4.884;2022-07-09T07:12:37;47.93;;;45.60;;
15905;SDS011;8051;50.820;4.884;2022-07-09T07:15:05;48.13;;;45.57;;
15905;SDS011;8051;50.820;4.884;2022-07-09T07:17:33;58.60;;;55.33;;
15905;SDS011;8051;50.820;4.884;2022-07-09T07:20:00;47.03;;;44.37;;
15905;SDS011;8051;50.820;4.884;2022-07-09T07:22:28;54.00;;;51.17;;
15905;SDS011;8051;50.820;4.884;2022-07-09T07:24:55;56.53;;;53.87;;
15905;SDS011;8051;50.820;4.884;2022-07-09T07:27:22;52.00;;;49.40;;
15905;SDS011;8051;50.820;4.884;2022-07-09T07:29:48;59.43;;;56.43;;
15905;SDS011;8051;50.820;4.884;2022-07-09T07:32:15;59.67;;;56.67;;
15905;SDS011;8051;50.820;4.884;2022-07-09T07:34:42;57.50;;;54.80;;
15905;SDS011;8051;50.820;4.884;2022-07-09T07:37:09;54.70;;;52.07;;
15905;SDS011;8051;50.820;4.884;2022-07-09T07:39:37;53.30;;;50.70;;
15905;SDS011;8051;50.820;4.884;2022-07-09T07:42:04;50.13;;;47.50;;
15905;SDS011;8051;50.820;4.884;2022-07-09T07:44:32;45.83;;;42.97;;
15905;SDS011;8051;50.820;4.884;2022-07-09T07:46:59;46.03;;;43.43;;
15905;SDS011;8051;50.820;4.884;2022-07-09T07:49:26;44.93;;;42.60;;
15905;SDS011;8051;50.820;4.884;2022-07-09T07:51:53;46.43;;;43.93;;
15905;SDS011;8051;50.820;4.884;2022-07-09T07:54:19;58.53;;;55.63;;
15905;SDS011;8051;50.820;4.884;2022-07-09T07:56:48;59.63;;;56.93;;
15905;SDS011;8051;50.820;4.884;2022-07-09T07:59:15;55.10;;;52.40;;
15905;SDS011;8051;50.820;4.884;2022-07-09T08:01:42;53.23;;;50.83;;
15905;SDS011;8051;50.820;4.884;2022-07-09T08:04:09;57.67;;;54.90;;
15905;SDS011;8051;50.820;4.884;2022-07-09T08:06:36;57.10;;;54.40;;
15905;SDS011;8051;50.820;4.884;2022-07-09T08:09:03;54.67;;;51.53;;
15905;SDS011;8051;50.820;4.884;2022-07-09T08:11:29;56.93;;;54.23;;
15905;SDS011;8051;50.820;4.884;2022-07-09T08:13:58;59.77;;;56.67;;
15905;SDS011;8051;50.820;4.884;2022-07-09T08:16:25;59.03;;;56.30;;
15905;SDS011;8051;50.820;4.884;2022-07-09T08:18:51;55.60;;;53.00;;
15905;SDS011;8051;50.820;4.884;2022-07-09T08:21:18;52.57;;;49.97;;
15905;SDS011;8051;50.820;4.884;2022-07-09T08:23:45;43.70;;;41.70;;
15905;SDS011;8051;50.820;4.884;2022-07-09T08:26:19;44.83;;;42.43;;
15905;SDS011;8051;50.820;4.884;2022-07-09T08:28:47;36.67;;;34.80;;
15905;SDS011;8051;50.820;4.884;2022-07-09T08:31:15;36.73;;;34.83;;
15905;SDS011;8051;50.820;4.884;2022-07-09T08:33:43;34.57;;;32.77;;
15905;SDS011;8051;50.820;4.884;2022-07-09T08:36:10;37.77;;;35.87;;
15905;SDS011;8051;50.820;4.884;2022-07-09T08:38:37;42.57;;;40.23;;
15905;SDS011;8051;50.820;4.884;2022-07-09T08:41:04;37.13;;;35.23;;
15905;SDS011;8051;50.820;4.884;2022-07-09T08:43:32;42.70;;;40.50;;
15905;SDS011;8051;50.820;4.884;2022-07-09T08:46:00;34.77;;;32.87;;
15905;SDS011;8051;50.820;4.884;2022-07-09T08:48:28;36.83;;;34.97;;
15905;SDS011;8051;50.820;4.884;2022-07-09T08:50:58;39.37;;;37.37;;
15905;SDS011;8051;50.820;4.884;2022-07-09T08:53:25;40.37;;;38.10;;
15905;SDS011;8051;50.820;4.884;2022-07-09T08:55:54;35.73;;;33.77;;
15905;SDS011;8051;50.820;4.884;2022-07-09T08:58:21;41.77;;;39.70;;
15905;SDS011;8051;50.820;4.884;2022-07-09T09:00:49;39.03;;;37.13;;
15905;SDS011;8051;50.820;4.884;2022-07-09T09:03:16;35.90;;;34.17;;
15905;SDS011;8051;50.820;4.884;2022-07-09T09:05:45;38.43;;;36.67;;
15905;SDS011;8051;50.820;4.884;2022-07-09T09:08:25;38.67;;;36.60;;
15905;SDS011;8051;50.820;4.884;2022-07-09T09:10:52;36.43;;;34.43;;
15905;SDS011;8051;50.820;4.884;2022-07-09T09:13:19;42.10;;;39.83;;
15905;SDS011;8051;50.820;4.884;2022-07-09T09:15:46;39.63;;;37.73;;
15905;SDS011;8051;50.820;4.884;2022-07-09T09:18:13;39.30;;;37.40;;
15905;SDS011;8051;50.820;4.884;2022-07-09T09:20:45;45.50;;;42.60;;
15905;SDS011;8051;50.820;4.884;2022-07-09T09:23:15;39.60;;;37.60;;
15905;SDS011;8051;50.820;4.884;2022-07-09T09:25:43;43.03;;;40.80;;
15905;SDS011;8051;50.820;4.884;2022-07-09T09:28:11;46.27;;;43.87;;
15905;SDS011;8051;50.820;4.884;2022-07-09T09:30:41;45.60;;;43.17;;
15905;SDS011;8051;50.820;4.884;2022-07-09T09:33:09;44.40;;;41.90;;
15905;SDS011;8051;50.820;4.884;2022-07-09T09:35:41;44.87;;;42.63;;
15905;SDS011;8051;50.820;4.884;2022-07-09T09:38:11;39.57;;;37.70;;
15905;SDS011;8051;50.820;4.884;2022-07-09T09:40:44;39.07;;;37.13;;
15905;SDS011;8051;50.820;4.884;2022-07-09T09:43:11;40.73;;;38.03;;
15905;SDS011;8051;50.820;4.884;2022-07-09T09:45:45;39.03;;;37.20;;
15905;SDS011;8051;50.820;4.884;2022-07-09T09:48:16;43.50;;;41.10;;
15905;SDS011;8051;50.820;4.884;2022-07-09T09:50:43;39.23;;;37.13;;
15905;SDS011;8051;50.820;4.884;2022-07-09T09:53:15;37.53;;;35.63;;
15905;SDS011;8051;50.820;4.884;2022-07-09T09:55:42;36.90;;;34.67;;
15905;SDS011;8051;50.820;4.884;2022-07-09T09:58:11;44.13;;;41.73;;
15905;SDS011;8051;50.820;4.884;2022-07-09T10:00:39;47.87;;;45.60;;
15905;SDS011;8051;50.820;4.884;2022-07-09T10:03:07;42.30;;;40.10;;
15905;SDS011;8051;50.820;4.884;2022-07-09T10:05:36;42.80;;;40.60;;
15905;SDS011;8051;50.820;4.884;2022-07-09T10:08:03;39.63;;;37.53;;
15905;SDS011;8051;50.820;4.884;2022-07-09T10:10:32;41.53;;;39.27;;
15905;SDS011;8051;50.820;4.884;2022-07-09T10:12:59;44.93;;;42.43;;
15905;SDS011;8051;50.820;4.884;2022-07-09T10:15:26;42.37;;;39.87;;
15905;SDS011;8051;50.820;4.884;2022-07-09T10:17:53;43.83;;;41.30;;
15905;SDS011;8051;50.820;4.884;2022-07-09T10:20:30;41.07;;;38.97;;
15905;SDS011;8051;50.820;4.884;2022-07-09T10:22:59;41.47;;;39.17;;
15905;SDS011;8051;50.820;4.884;2022-07-09T10:25:28;38.67;;;36.37;;
15905;SDS011;8051;50.820;4.884;2022-07-09T10:27:57;40.87;;;38.80;;
15905;SDS011;8051;50.820;4.884;2022-07-09T10:30:25;45.83;;;43.57;;
15905;SDS011;8051;50.820;4.884;2022-07-09T10:33:00;46.87;;;44.37;;
15905;SDS011;8051;50.820;4.884;2022-07-09T10:35:29;46.93;;;44.10;;
15905;SDS011;8051;50.820;4.884;2022-07-09T10:37:56;43.07;;;40.87;;
15905;SDS011;8051;50.820;4.884;2022-07-09T10:40:23;43.73;;;41.20;;
15905;SDS011;8051;50.820;4.884;2022-07-09T10:42:58;43.53;;;41.33;;
15905;SDS011;8051;50.820;4.884;2022-07-09T10:45:29;42.80;;;40.40;;
15905;SDS011;8051;50.820;4.884;2022-07-09T10:48:03;48.73;;;46.23;;
15905;SDS011;8051;50.820;4.884;2022-07-09T10:50:32;46.33;;;43.67;;
15905;SDS011;8051;50.820;4.884;2022-07-09T10:53:01;44.80;;;42.40;;
15905;SDS011;8051;50.820;4.884;2022-07-09T10:55:29;43.63;;;41.33;;
15905;SDS011;8051;50.820;4.884;2022-07-09T10:57:57;45.77;;;43.27;;
15905;SDS011;8051;50.820;4.884;2022-07-09T11:00:25;49.77;;;47.07;;
15905;SDS011;8051;50.820;4.884;2022-07-09T11:02:53;52.00;;;49.33;;
15905;SDS011;8051;50.820;4.884;2022-07-09T11:05:21;52.30;;;49.50;;
15905;SDS011;8051;50.820;4.884;2022-07-09T11:07:55;48.17;;;45.60;;
15905;SDS011;8051;50.820;4.884;2022-07-09T11:10:23;53.13;;;50.13;;
15905;SDS011;8051;50.820;4.884;2022-07-09T11:12:52;55.13;;;52.20;;
15905;SDS011;8051;50.820;4.884;2022-07-09T11:15:20;60.03;;;56.80;;
15905;SDS011;8051;50.820;4.884;2022-07-09T11:17:58;50.50;;;47.17;;
15905;SDS011;8051;50.820;4.884;2022-07-09T11:20:26;49.17;;;46.27;;
15905;SDS011;8051;50.820;4.884;2022-07-09T11:22:54;55.73;;;52.63;;
15905;SDS011;8051;50.820;4.884;2022-07-09T11:25:22;138.57;;;130.50;;
15905;SDS011;8051;50.820;4.884;2022-07-09T11:27:51;57.23;;;53.93;;
15905;SDS011;8051;50.820;4.884;2022-07-09T11:30:17;67.40;;;63.27;;
15905;SDS011;8051;50.820;4.884;2022-07-09T11:32:46;72.80;;;68.20;;
15905;SDS011;8051;50.820;4.884;2022-07-09T11:35:22;71.93;;;67.90;;
15905;SDS011;8051;50.820;4.884;2022-07-09T11:37:53;60.60;;;57.17;;
15905;SDS011;8051;50.820;4.884;2022-07-09T11:40:21;72.17;;;68.03;;
15905;SDS011;8051;50.820;4.884;2022-07-09T11:42:48;68.67;;;64.57;;
15905;SDS011;8051;50.820;4.884;2022-07-09T11:45:19;72.57;;;68.53;;
15905;SDS011;8051;50.820;4.884;2022-07-09T11:47:49;67.50;;;63.87;;
15905;SDS011;8051;50.820;4.884;2022-07-09T11:50:16;67.27;;;63.33;;
15905;SDS011;8051;50.820;4.884;2022-07-09T11:52:45;69.83;;;65.97;;
15905;SDS011;8051;50.820;4.884;2022-07-09T11:55:14;62.63;;;58.63;;
15905;SDS011;8051;50.820;4.884;2022-07-09T11:57:50;59.97;;;56.83;;
15905;SDS011;8051;50.820;4.884;2022-07-09T12:00:22;57.97;;;54.60;;
15905;SDS011;8051;50.820;4.884;2022-07-09T12:02:52;60.27;;;57.47;;
15905;SDS011;8051;50.820;4.884;2022-07-09T12:05:26;58.30;;;55.53;;
15905;SDS011;8051;50.820;4.884;2022-07-09T12:07:55;126.70;;;120.70;;
15905;SDS011;8051;50.820;4.884;2022-07-09T12:10:27;66.60;;;63.67;;
15905;SDS011;8051;50.820;4.884;2022-07-09T12:12:55;57.40;;;54.63;;
15905;SDS011;8051;50.820;4.884;2022-07-09T12:15:22;45.67;;;43.50;;
15905;SDS011;8051;50.820;4.884;2022-07-09T12:17:54;44.40;;;42.43;;
15905;SDS011;8051;50.820;4.884;2022-07-09T12:20:22;45.67;;;43.57;;
15905;SDS011;8051;50.820;4.884;2022-07-09T12:22:50;51.57;;;49.07;;
15905;SDS011;8051;50.820;4.884;2022-07-09T12:25:17;46.77;;;44.47;;
15905;SDS011;8051;50.820;4.884;2022-07-09T12:27:45;49.97;;;47.67;;
15905;SDS011;8051;50.820;4.884;2022-07-09T12:30:12;71.07;;;67.80;;
15905;SDS011;8051;50.820;4.884;2022-07-09T12:32:39;46.40;;;43.93;;
15905;SDS011;8051;50.820;4.884;2022-07-09T12:35:09;47.23;;;44.90;;
15905;SDS011;8051;50.820;4.884;2022-07-09T12:37:37;45.80;;;43.50;;
15905;SDS011;8051;50.820;4.884;2022-07-09T12:40:04;41.77;;;39.97;;
15905;SDS011;8051;50.820;4.884;2022-07-09T12:42:32;43.53;;;41.67;;
15905;SDS011;8051;50.820;4.884;2022-07-09T12:44:59;40.67;;;38.87;;
15905;SDS011;8051;50.820;4.884;2022-07-09T12:47:26;41.53;;;39.07;;
15905;SDS011;8051;50.820;4.884;2022-07-09T12:49:53;41.70;;;39.80;;
15905;SDS011;8051;50.820;4.884;2022-07-09T12:52:22;88.67;;;84.57;;
15905;SDS011;8051;50.820;4.884;2022-07-09T12:54:48;39.07;;;37.37;;
15905;SDS011;8051;50.820;4.884;2022-07-09T12:57:15;38.43;;;36.77;;
15905;SDS011;8051;50.820;4.884;2022-07-09T12:59:42;38.00;;;36.23;;
15905;SDS011;8051;50.820;4.884;2022-07-09T13:02:09;44.23;;;42.37;;
15905;SDS011;8051;50.820;4.884;2022-07-09T13:04:36;39.80;;;37.53;;
15905;SDS011;8051;50.820;4.884;2022-07-09T13:07:03;38.83;;;36.73;;
15905;SDS011;8051;50.820;4.884;2022-07-09T13:09:32;41.30;;;39.43;;
15905;SDS011;8051;50.820;4.884;2022-07-09T13:11:59;58.70;;;55.63;;
15905;SDS011;8051;50.820;4.884;2022-07-09T13:14:26;38.07;;;36.27;;
15905;SDS011;8051;50.820;4.884;2022-07-09T13:16:53;39.57;;;37.87;;
15905;SDS011;8051;50.820;4.884;2022-07-09T13:19:20;70.77;;;67.17;;
15905;SDS011;8051;50.820;4.884;2022-07-09T13:21:47;52.67;;;50.27;;
15905;SDS011;8051;50.820;4.884;2022-07-09T13:24:13;62.37;;;59.53;;
15905;SDS011;8051;50.820;4.884;2022-07-09T13:26:42;41.03;;;39.13;;
15905;SDS011;8051;50.820;4.884;2022-07-09T13:29:09;52.43;;;50.23;;
15905;SDS011;8051;50.820;4.884;2022-07-09T13:31:36;38.10;;;36.40;;
15905;SDS011;8051;50.820;4.884;2022-07-09T13:34:03;43.00;;;40.90;;
15905;SDS011;8051;50.820;4.884;2022-07-09T13:36:29;48.77;;;46.37;;
15905;SDS011;8051;50.820;4.884;2022-07-09T13:38:56;42.23;;;40.43;;
15905;SDS011;8051;50.820;4.884;2022-07-09T13:41:23;43.13;;;41.13;;
15905;SDS011;8051;50.820;4.884;2022-07-09T13:43:51;38.40;;;36.80;;
15905;SDS011;8051;50.820;4.884;2022-07-09T13:46:18;39.33;;;37.53;;
15905;SDS011;8051;50.820;4.884;2022-07-09T13:48:45;40.60;;;38.90;;
15905;SDS011;8051;50.820;4.884;2022-07-09T13:51:12;49.40;;;47.30;;
15905;SDS011;8051;50.820;4.884;2022-07-09T13:53:39;39.73;;;37.37;;
15905;SDS011;8051;50.820;4.884;2022-07-09T13:56:07;38.17;;;36.43;;
15905;SDS011;8051;50.820;4.884;2022-07-09T13:58:34;39.70;;;38.00;;
15905;SDS011;8051;50.820;4.884;2022-07-09T14:01:03;47.67;;;45.43;;
15905;SDS011;8051;50.820;4.884;2022-07-09T14:03:30;38.77;;;36.77;;
15905;SDS011;8051;50.820;4.884;2022-07-09T14:05:57;40.03;;;38.30;;
15905;SDS011;8051;50.820;4.884;2022-07-09T14:08:23;42.67;;;40.80;;
15905;SDS011;8051;50.820;4.884;2022-07-09T14:10:52;39.90;;;38.17;;
15905;SDS011;8051;50.820;4.884;2022-07-09T14:13:23;52.37;;;50.17;;
15905;SDS011;8051;50.820;4.884;2022-07-09T14:15:51;38.17;;;36.47;;
15905;SDS011;8051;50.820;4.884;2022-07-09T14:18:20;44.77;;;42.87;;
15905;SDS011;8051;50.820;4.884;2022-07-09T14:20:46;37.80;;;36.10;;
15905;SDS011;8051;50.820;4.884;2022-07-09T14:23:14;42.30;;;40.33;;
15905;SDS011;8051;50.820;4.884;2022-07-09T14:25:41;91.23;;;86.73;;
15905;SDS011;8051;50.820;4.884;2022-07-09T14:28:08;39.03;;;37.33;;
15905;SDS011;8051;50.820;4.884;2022-07-09T14:30:35;98.47;;;93.83;;
15905;SDS011;8051;50.820;4.884;2022-07-09T14:33:02;42.20;;;40.30;;
15905;SDS011;8051;50.820;4.884;2022-07-09T14:35:30;48.97;;;46.83;;